createdAt,value
2023-01-08T00:01:14.244Z,2.92
2023-01-08T00:03:41.610Z,3.55
2023-01-08T00:06:12.547Z,6.72
2023-01-08T00:08:39.680Z,3.83
2023-01-08T00:11:09.509Z,3.85
2023-01-08T00:13:36.700Z,1.95
2023-01-08T00:16:09.992Z,2.00
2023-01-08T00:18:36.978Z,3.95
2023-01-08T00:21:04.654Z,2.85
2023-01-08T00:23:31.814Z,4.55
2023-01-08T00:26:05.495Z,4.30
2023-01-08T00:28:34.185Z,4.32
2023-01-08T00:31:05.719Z,3.92
2023-01-08T00:33:33.246Z,2.97
2023-01-08T00:36:00.268Z,3.47
2023-01-08T00:38:30.987Z,4.68
2023-01-08T00:40:57.923Z,4.15
2023-01-08T00:43:27.020Z,4.57
2023-01-08T00:45:54.290Z,2.92
2023-01-08T00:48:22.585Z,3.33
2023-01-08T00:50:50.148Z,3.40
2023-01-08T00:53:18.911Z,3.17
2023-01-08T00:55:48.412Z,3.45
2023-01-08T00:58:16.294Z,3.75
2023-01-08T01:00:45.142Z,4.00
2023-01-08T01:03:12.598Z,3.95
2023-01-08T01:05:39.855Z,3.22
2023-01-08T01:08:06.703Z,3.30
2023-01-08T01:10:33.711Z,6.80
2023-01-08T01:13:00.617Z,6.90
2023-01-08T01:15:27.523Z,5.68
2023-01-08T01:17:54.376Z,3.45
2023-01-08T01:20:24.525Z,4.80
2023-01-08T01:22:51.494Z,3.58
2023-01-08T01:25:18.807Z,3.97
2023-01-08T01:27:45.785Z,2.15
2023-01-08T01:30:13.403Z,5.57
2023-01-08T01:32:49.452Z,4.65
2023-01-08T01:35:16.511Z,2.13
2023-01-08T01:37:43.559Z,2.33
2023-01-08T01:40:11.181Z,3.80
2023-01-08T01:42:40.883Z,3.03
2023-01-08T01:45:21.786Z,2.30
2023-01-08T01:47:57.873Z,2.55
2023-01-08T01:50:33.007Z,2.17
2023-01-08T01:53:12.111Z,1.88
2023-01-08T01:55:42.772Z,2.92
2023-01-08T02:00:49.648Z,2.40
2023-01-08T02:03:20.706Z,2.75
2023-01-08T02:06:03.733Z,3.47
2023-01-08T02:08:46.645Z,2.78
2023-01-08T02:11:28.417Z,4.63
2023-01-08T02:14:24.206Z,3.00
2023-01-08T02:17:06.742Z,2.58
2023-01-08T02:19:40.547Z,3.78
2023-01-08T02:26:12.454Z,2.58
2023-01-08T02:29:06.974Z,3.67
2023-01-08T02:31:36.530Z,2.70
2023-01-08T02:36:40.216Z,3.63
2023-01-08T02:39:11.408Z,3.55
2023-01-08T02:41:56.842Z,4.47
2023-01-08T02:44:34.323Z,2.45
2023-01-08T02:47:03.770Z,2.90
2023-01-08T02:49:35.666Z,2.63
2023-01-08T02:52:04.875Z,3.10
2023-01-08T02:54:34.343Z,5.35
2023-01-08T02:57:21.378Z,4.22
2023-01-08T02:59:50.196Z,4.03
2023-01-08T03:02:20.438Z,4.53
2023-01-08T03:07:38.103Z,3.13
2023-01-08T03:10:05.773Z,3.50
2023-01-08T03:12:49.257Z,3.28
2023-01-08T03:15:25.378Z,2.78
2023-01-08T03:17:57.991Z,3.05
2023-01-08T03:20:25.703Z,2.95
2023-01-08T03:22:59.563Z,2.78
2023-01-08T03:25:32.701Z,3.15
2023-01-08T03:28:05.915Z,3.40
2023-01-08T03:30:33.830Z,2.13
2023-01-08T03:33:16.078Z,3.95
2023-01-08T03:35:47.051Z,3.80
2023-01-08T03:38:27.573Z,3.63
2023-01-08T03:41:04.871Z,2.95
2023-01-08T03:43:31.806Z,3.42
2023-01-08T03:46:03.084Z,3.30
2023-01-08T03:48:31.507Z,3.85
2023-01-08T03:50:59.255Z,3.63
2023-01-08T03:53:26.321Z,3.40
2023-01-08T03:55:56.985Z,3.47
2023-01-08T04:01:02.972Z,3.33
2023-01-08T04:03:30.123Z,4.13
2023-01-08T04:06:00.919Z,4.60
2023-01-08T04:08:28.155Z,6.80
2023-01-08T04:10:55.114Z,5.28
2023-01-08T04:13:21.915Z,3.05
2023-01-08T04:15:52.305Z,2.53
2023-01-08T04:18:19.347Z,3.13
2023-01-08T04:20:57.113Z,3.42
2023-01-08T04:23:24.371Z,3.85
2023-01-08T04:25:51.354Z,3.15
2023-01-08T04:28:18.462Z,4.40
2023-01-08T04:30:45.479Z,3.47
2023-01-08T04:33:12.896Z,7.25
2023-01-08T04:35:51.932Z,4.57
2023-01-08T04:38:18.842Z,3.92
2023-01-08T04:40:45.697Z,3.70
2023-01-08T04:43:12.650Z,5.30
2023-01-08T04:45:39.611Z,4.95
2023-01-08T04:48:06.792Z,6.03
2023-01-08T04:50:33.793Z,4.85
2023-01-08T04:53:02.282Z,4.93
2023-01-08T04:55:31.264Z,4.85
2023-01-08T04:57:58.309Z,4.70
2023-01-08T05:00:25.501Z,4.10
2023-01-08T05:02:52.549Z,4.85
2023-01-08T05:05:19.666Z,5.05
2023-01-08T05:07:46.701Z,6.00
2023-01-08T05:10:13.967Z,9.15
2023-01-08T05:12:40.951Z,5.15
2023-01-08T05:15:09.145Z,4.63
2023-01-08T05:17:36.143Z,5.15
2023-01-08T05:20:03.475Z,5.65
2023-01-08T05:22:30.750Z,4.97
2023-01-08T05:24:57.917Z,6.07
2023-01-08T05:27:37.342Z,4.85
2023-01-08T05:30:04.678Z,5.60
2023-01-08T05:32:32.015Z,7.03
2023-01-08T05:34:58.888Z,5.05
2023-01-08T05:37:26.058Z,4.38
2023-01-08T05:39:53.141Z,4.95
2023-01-08T05:42:24.635Z,4.93
2023-01-08T05:44:52.927Z,5.90
2023-01-08T05:47:20.231Z,4.57
2023-01-08T05:49:54.070Z,5.07
2023-01-08T05:52:20.984Z,4.88
2023-01-08T05:54:47.835Z,3.75
2023-01-08T05:57:14.795Z,4.90
2023-01-08T05:59:43.241Z,4.63
2023-01-08T06:02:10.226Z,3.53
2023-01-08T06:04:37.218Z,3.70
2023-01-08T06:07:04.765Z,5.10
2023-01-08T06:09:31.832Z,3.80
2023-01-08T06:11:58.795Z,2.95
2023-01-08T06:14:25.757Z,2.92
2023-01-08T06:16:52.781Z,4.05
2023-01-08T06:22:50.611Z,3.25
2023-01-08T06:25:17.709Z,3.17
2023-01-08T06:27:44.822Z,4.97
2023-01-08T06:30:11.949Z,2.88
2023-01-08T06:32:39.057Z,3.13
2023-01-08T06:35:06.268Z,2.95
2023-01-08T06:37:33.575Z,5.28
2023-01-08T06:40:00.619Z,2.38
2023-01-08T06:42:27.864Z,3.92
2023-01-08T06:44:54.820Z,4.35
2023-01-08T06:47:21.762Z,2.92
2023-01-08T06:49:48.763Z,2.60
2023-01-08T06:52:15.710Z,3.33
2023-01-08T06:54:42.686Z,5.28
2023-01-08T06:57:09.773Z,3.95
2023-01-08T06:59:36.674Z,2.42
2023-01-08T07:02:03.811Z,2.97
2023-01-08T07:04:30.795Z,3.60
2023-01-08T07:07:03.664Z,1.75
2023-01-08T07:09:30.616Z,2.63
2023-01-08T07:11:57.609Z,2.72
2023-01-08T07:14:24.523Z,3.47
2023-01-08T07:16:51.756Z,3.22
2023-01-08T07:19:18.806Z,3.72
2023-01-08T07:21:45.734Z,2.42
2023-01-08T07:24:12.623Z,3.15
2023-01-08T07:26:42.314Z,3.92
2023-01-08T07:29:09.418Z,3.70
2023-01-08T07:31:36.485Z,2.70
2023-01-08T07:34:07.210Z,2.92
2023-01-08T07:39:01.233Z,2.95
2023-01-08T07:41:28.221Z,3.13
2023-01-08T07:43:55.106Z,4.47
2023-01-08T07:46:23.160Z,2.00
2023-01-08T07:48:50.367Z,2.35
2023-01-08T07:51:17.315Z,3.90
2023-01-08T07:53:44.472Z,4.20
2023-01-08T07:56:11.694Z,5.13
2023-01-08T07:58:39.029Z,5.55
2023-01-08T08:01:10.340Z,5.30
2023-01-08T08:03:39.032Z,4.25
2023-01-08T08:06:06.547Z,5.15
2023-01-08T08:08:34.177Z,4.97
2023-01-08T08:11:01.659Z,4.45
2023-01-08T08:13:28.684Z,4.85
2023-01-08T08:15:56.007Z,5.55
2023-01-08T08:18:23.076Z,5.00
2023-01-08T08:20:52.121Z,4.97
2023-01-08T08:23:21.471Z,4.43
2023-01-08T08:25:48.767Z,4.72
2023-01-08T08:28:16.139Z,5.75
2023-01-08T08:30:45.610Z,5.72
2023-01-08T08:33:13.142Z,4.88
2023-01-08T08:35:40.401Z,4.82
2023-01-08T08:38:07.727Z,4.13
2023-01-08T08:40:34.973Z,5.03
2023-01-08T08:43:04.024Z,7.43
2023-01-08T08:45:31.116Z,7.82
2023-01-08T08:47:58.080Z,7.38
2023-01-08T08:50:26.662Z,5.00
2023-01-08T08:52:58.444Z,4.88
2023-01-08T08:55:25.694Z,4.97
2023-01-08T08:57:53.263Z,5.70
2023-01-08T09:00:21.017Z,4.85
2023-01-08T09:02:51.054Z,8.38
2023-01-08T09:05:18.464Z,5.47
2023-01-08T09:07:45.545Z,7.15
2023-01-08T09:10:12.691Z,4.38
2023-01-08T09:12:40.096Z,5.80
2023-01-08T09:15:10.179Z,5.07
2023-01-08T09:17:37.184Z,4.43
2023-01-08T09:20:06.453Z,4.18
2023-01-08T09:22:33.762Z,4.57
2023-01-08T09:25:03.041Z,5.28
2023-01-08T09:27:30.189Z,4.32
2023-01-08T09:29:57.146Z,5.43
2023-01-08T09:32:24.192Z,6.20
2023-01-08T09:34:51.218Z,7.25
2023-01-08T09:37:18.412Z,7.03
2023-01-08T09:39:50.975Z,7.15
2023-01-08T09:42:24.523Z,6.57
2023-01-08T09:44:54.018Z,4.65
2023-01-08T09:47:26.037Z,6.45
2023-01-08T09:49:59.546Z,7.13
2023-01-08T09:52:26.819Z,4.80
2023-01-08T09:54:53.925Z,5.97
2023-01-08T09:57:23.689Z,3.78
2023-01-08T09:59:50.830Z,5.43
2023-01-08T10:02:20.978Z,5.75
2023-01-08T10:04:54.678Z,5.10
2023-01-08T10:07:26.992Z,4.43
2023-01-08T10:09:55.352Z,4.72
2023-01-08T10:12:33.199Z,4.55
2023-01-08T10:15:11.557Z,4.50
2023-01-08T10:18:04.558Z,4.88
2023-01-08T10:20:33.111Z,4.78
2023-01-08T10:23:30.567Z,5.30
2023-01-08T10:26:01.167Z,6.70
2023-01-08T10:28:36.533Z,4.90
2023-01-08T10:31:16.861Z,4.07
2023-01-08T10:33:49.412Z,3.92
2023-01-08T10:36:22.886Z,5.00
2023-01-08T10:38:56.863Z,4.82
2023-01-08T10:41:24.653Z,3.85
2023-01-08T10:44:00.529Z,4.63
2023-01-08T10:46:38.133Z,3.83
2023-01-08T10:49:08.274Z,5.82
2023-01-08T10:51:55.475Z,7.47
2023-01-08T10:54:36.810Z,4.45
2023-01-08T10:57:24.076Z,3.95
2023-01-08T10:59:52.917Z,6.50
2023-01-08T11:02:38.609Z,6.47
2023-01-08T11:05:12.302Z,3.88
2023-01-08T11:08:01.540Z,4.13
2023-01-08T11:10:33.067Z,3.92
2023-01-08T11:13:07.285Z,3.22
2023-01-08T11:15:45.376Z,3.97
2023-01-08T11:18:20.572Z,4.95
2023-01-08T11:20:54.717Z,3.92
2023-01-08T11:23:27.818Z,4.65
2023-01-08T11:26:14.188Z,6.93
2023-01-08T11:28:47.531Z,3.00
2023-01-08T11:33:56.941Z,3.97
2023-01-08T11:36:34.488Z,6.55
2023-01-08T11:39:03.049Z,3.55
2023-01-08T11:42:07.113Z,3.72
2023-01-08T11:44:49.687Z,3.53
2023-01-08T11:47:33.883Z,4.32
2023-01-08T11:50:21.987Z,3.33
2023-01-08T11:53:21.929Z,6.38
2023-01-08T11:56:14.986Z,2.97
2023-01-08T11:59:04.264Z,3.53
2023-01-08T12:01:48.438Z,3.80
2023-01-08T12:04:40.211Z,4.28
2023-01-08T12:07:31.390Z,4.13
2023-01-08T12:10:10.401Z,3.15
2023-01-08T12:13:07.242Z,6.18
2023-01-08T12:15:58.967Z,4.18
2023-01-08T12:18:35.323Z,7.20
2023-01-08T12:21:14.724Z,5.30
2023-01-08T12:24:12.040Z,7.65
2023-01-08T12:27:09.413Z,8.40
2023-01-08T12:29:58.714Z,8.18
2023-01-08T12:32:37.693Z,5.70
2023-01-08T12:35:13.621Z,6.10
2023-01-08T12:37:43.687Z,4.97
2023-01-08T12:40:25.011Z,6.50
2023-01-08T12:43:00.484Z,9.30
2023-01-08T12:45:39.132Z,6.50
2023-01-08T12:48:18.971Z,4.65
2023-01-08T12:51:21.224Z,5.82
2023-01-08T12:54:18.641Z,5.25
2023-01-08T12:56:48.477Z,5.25
2023-01-08T12:59:45.509Z,5.43
2023-01-08T13:02:22.794Z,5.03
2023-01-08T13:04:49.973Z,4.53
2023-01-08T13:07:19.580Z,6.07
2023-01-08T13:09:54.207Z,5.75
2023-01-08T13:12:37.572Z,5.65
2023-01-08T13:15:07.023Z,6.35
2023-01-08T13:17:34.375Z,5.30
2023-01-08T13:20:05.793Z,6.47
2023-01-08T13:22:35.585Z,7.50
2023-01-08T13:25:35.262Z,6.13
2023-01-08T13:28:27.153Z,5.95
2023-01-08T13:31:07.242Z,5.60
2023-01-08T13:33:34.136Z,6.78
2023-01-08T13:36:32.475Z,6.18
2023-01-08T13:46:19.676Z,5.53
2023-01-08T13:49:30.372Z,7.70
2023-01-08T13:52:40.539Z,6.07
2023-01-08T13:55:27.714Z,4.63
2023-01-08T13:58:03.121Z,6.78
2023-01-08T14:00:45.575Z,7.85
2023-01-08T14:03:46.357Z,6.00
2023-01-08T14:06:24.993Z,5.15
2023-01-08T14:09:00.537Z,5.43
2023-01-08T14:11:39.938Z,4.47
2023-01-08T14:14:15.191Z,5.60
2023-01-08T14:16:42.699Z,6.32
2023-01-08T14:19:19.097Z,5.40
2023-01-08T14:22:10.466Z,6.00
2023-01-08T14:24:37.446Z,5.90
2023-01-08T14:27:04.450Z,6.47
2023-01-08T14:29:33.188Z,6.57
2023-01-08T14:32:01.641Z,7.88
2023-01-08T14:34:31.487Z,7.72
2023-01-08T14:36:58.751Z,5.68
2023-01-08T14:39:36.577Z,7.68
2023-01-08T14:42:53.372Z,7.78
2023-01-08T14:45:29.893Z,8.27
2023-01-08T14:48:01.018Z,5.82
2023-01-08T14:50:31.231Z,4.90
2023-01-08T14:53:06.955Z,5.55
2023-01-08T14:55:36.899Z,6.47
2023-01-08T14:58:15.120Z,6.53
2023-01-08T15:00:42.706Z,4.68
2023-01-08T15:03:42.939Z,6.00
2023-01-08T15:08:42.935Z,3.72
2023-01-08T15:11:31.278Z,5.65
2023-01-08T15:16:50.193Z,4.40
2023-01-08T15:19:25.680Z,5.93
2023-01-08T15:21:59.639Z,7.13
2023-01-08T15:24:36.675Z,5.55
2023-01-08T15:27:10.171Z,6.70
2023-01-08T15:29:48.688Z,7.00
2023-01-08T15:32:15.766Z,9.25
2023-01-08T15:34:44.148Z,8.15
2023-01-08T15:37:15.186Z,7.45
2023-01-08T15:39:43.329Z,9.73
2023-01-08T15:42:50.790Z,7.60
2023-01-08T15:45:20.384Z,7.18
2023-01-08T15:47:47.686Z,9.00
2023-01-08T15:50:15.277Z,8.95
2023-01-08T15:52:43.594Z,9.30
2023-01-08T15:55:18.941Z,11.45
2023-01-08T15:57:46.035Z,7.60
2023-01-08T16:00:14.603Z,7.88
2023-01-08T16:02:48.590Z,8.82
2023-01-08T16:05:17.711Z,8.07
2023-01-08T16:07:46.797Z,9.65
2023-01-08T16:10:17.904Z,7.93
2023-01-08T16:12:47.968Z,10.13
2023-01-08T16:15:16.335Z,8.88
2023-01-08T16:17:44.421Z,8.65
2023-01-08T16:20:14.036Z,11.52
2023-01-08T16:22:41.171Z,8.52
2023-01-08T16:25:09.550Z,8.02
2023-01-08T16:27:38.657Z,7.68
2023-01-08T16:30:08.195Z,6.93
2023-01-08T16:32:35.164Z,7.82
2023-01-08T16:35:02.370Z,10.27
2023-01-08T16:37:31.216Z,7.60
2023-01-08T16:39:58.147Z,8.30
2023-01-08T16:42:25.283Z,6.22
2023-01-08T16:44:52.540Z,6.00
2023-01-08T16:47:19.526Z,7.97
2023-01-08T16:49:46.584Z,9.45
2023-01-08T16:52:13.653Z,10.00
2023-01-08T16:54:40.760Z,8.07
2023-01-08T16:57:10.695Z,7.75
2023-01-08T17:02:25.952Z,6.57
2023-01-08T17:04:55.993Z,10.82
2023-01-08T17:07:24.000Z,8.73
2023-01-08T17:09:51.286Z,7.72
2023-01-08T17:12:24.259Z,6.80
2023-01-08T17:14:52.295Z,8.10
2023-01-08T17:17:21.175Z,8.43
2023-01-08T17:20:08.356Z,9.65
2023-01-08T17:22:38.337Z,6.57
2023-01-08T17:25:07.905Z,7.63
2023-01-08T17:27:37.639Z,9.98
2023-01-08T17:30:07.991Z,7.72
2023-01-08T17:32:39.985Z,8.27
2023-01-08T17:35:10.053Z,8.32
2023-01-08T17:37:40.842Z,8.15
2023-01-08T17:40:13.868Z,6.47
2023-01-08T17:42:41.787Z,7.35
2023-01-08T17:45:14.658Z,7.22
2023-01-08T17:47:44.593Z,7.05
2023-01-08T17:50:14.530Z,7.82
2023-01-08T17:52:43.978Z,6.85
2023-01-08T17:55:15.257Z,6.70
2023-01-08T17:57:47.182Z,8.73
2023-01-08T18:00:29.050Z,5.72
2023-01-08T18:02:57.623Z,7.95
2023-01-08T18:05:34.685Z,5.63
2023-01-08T18:08:04.002Z,5.10
2023-01-08T18:10:39.951Z,7.07
2023-01-08T18:13:12.721Z,4.90
2023-01-08T18:15:50.991Z,4.53
2023-01-08T18:18:35.203Z,5.82
2023-01-08T18:21:08.781Z,4.80
2023-01-08T18:23:40.698Z,4.60
2023-01-08T18:26:12.984Z,7.35
2023-01-08T18:28:44.968Z,8.10
2023-01-08T18:31:20.996Z,7.90
2023-01-08T18:33:52.582Z,6.10
2023-01-08T18:36:33.385Z,8.55
2023-01-08T18:39:06.864Z,9.70
2023-01-08T18:41:57.375Z,6.68
2023-01-08T18:44:27.339Z,6.10
2023-01-08T18:46:57.694Z,8.60
2023-01-08T18:49:33.725Z,8.30
2023-01-08T18:52:14.096Z,9.07
2023-01-08T18:54:50.424Z,10.30
2023-01-08T18:57:18.954Z,9.25
2023-01-08T19:00:03.573Z,8.73
2023-01-08T19:02:36.287Z,12.00
2023-01-08T19:05:12.978Z,9.38
2023-01-08T19:08:01.675Z,12.35
2023-01-08T19:10:32.761Z,9.02
2023-01-08T19:13:07.285Z,12.30
2023-01-08T19:15:38.944Z,9.73
2023-01-08T19:18:10.461Z,8.50
2023-01-08T19:20:46.337Z,9.23
2023-01-08T19:23:18.144Z,9.32
2023-01-08T19:25:48.866Z,10.02
2023-01-08T19:28:23.889Z,8.90
2023-01-08T19:30:57.841Z,10.05
2023-01-08T19:33:35.401Z,12.45
2023-01-08T19:36:11.590Z,11.05
2023-01-08T19:38:43.013Z,12.57
2023-01-08T19:41:30.308Z,11.35
2023-01-08T19:44:05.612Z,10.10
2023-01-08T19:46:39.761Z,11.32
2023-01-08T19:49:12.703Z,10.05
2023-01-08T19:51:44.972Z,10.90
2023-01-08T19:54:20.414Z,10.77
2023-01-08T19:56:54.022Z,10.65
2023-01-08T19:59:23.019Z,12.43
2023-01-08T20:01:56.247Z,8.98
2023-01-08T20:04:28.169Z,12.50
2023-01-08T20:07:15.392Z,10.60
2023-01-08T20:09:46.644Z,9.07
2023-01-08T20:12:22.110Z,9.55
2023-01-08T20:14:55.617Z,11.10
2023-01-08T20:17:26.270Z,10.93
2023-01-08T20:20:09.658Z,10.70
2023-01-08T20:22:39.642Z,10.55
2023-01-08T20:25:11.208Z,11.45
2023-01-08T20:27:41.799Z,10.10
2023-01-08T20:30:14.745Z,12.73
2023-01-08T20:32:55.227Z,12.98
2023-01-08T20:35:27.507Z,11.65
2023-01-08T20:38:00.507Z,11.07
2023-01-08T20:40:32.279Z,10.55
2023-01-08T20:43:04.617Z,10.32
2023-01-08T20:45:40.505Z,10.93
2023-01-08T20:48:12.782Z,12.25
2023-01-08T20:50:47.175Z,11.55
2023-01-08T20:53:18.451Z,10.73
2023-01-08T20:55:48.165Z,11.02
2023-01-08T20:58:19.819Z,11.15
2023-01-08T21:00:54.108Z,10.07
2023-01-08T21:03:24.309Z,10.43
2023-01-08T21:05:53.755Z,10.55
2023-01-08T21:08:42.309Z,10.65
2023-01-08T21:11:19.312Z,10.15
2023-01-08T21:13:51.044Z,11.90
2023-01-08T21:16:28.867Z,12.93
2023-01-08T21:18:59.032Z,9.95
2023-01-08T21:21:34.365Z,11.40
2023-01-08T21:24:05.208Z,9.27
2023-01-08T21:26:41.932Z,10.60
2023-01-08T21:29:21.052Z,9.40
2023-01-08T21:34:33.062Z,12.60
2023-01-08T21:37:04.482Z,11.73
2023-01-08T21:39:36.783Z,9.23
2023-01-08T21:42:27.996Z,7.50
2023-01-08T21:45:19.478Z,8.20
2023-01-08T21:47:54.081Z,7.07
2023-01-08T21:50:24.871Z,7.28
2023-01-08T21:53:11.123Z,7.03
2023-01-08T21:55:43.545Z,10.02
2023-01-08T21:58:12.040Z,7.38
2023-01-08T22:00:40.346Z,7.82
2023-01-08T22:03:08.489Z,8.18
2023-01-08T22:05:35.704Z,5.90
2023-01-08T22:08:05.331Z,6.85
2023-01-08T22:10:33.666Z,9.30
2023-01-08T22:13:01.891Z,7.50
2023-01-08T22:15:29.471Z,7.40
2023-01-08T22:17:57.980Z,6.43
2023-01-08T22:20:28.079Z,5.68
2023-01-08T22:22:56.830Z,2.85
2023-01-08T22:25:25.032Z,3.85
2023-01-08T22:27:54.724Z,6.82
2023-01-08T22:30:23.721Z,12.02
2023-01-08T22:32:52.193Z,8.18
2023-01-08T22:35:19.759Z,7.68
2023-01-08T22:37:48.103Z,8.18
2023-01-08T22:40:15.697Z,9.07
2023-01-08T22:42:44.037Z,9.13
2023-01-08T22:45:12.436Z,7.05
2023-01-08T22:47:40.148Z,8.60
2023-01-08T22:50:09.715Z,8.38
2023-01-08T22:52:41.451Z,7.25
2023-01-08T22:55:10.012Z,6.68
2023-01-08T22:57:38.129Z,3.25
2023-01-08T23:00:09.103Z,6.63
2023-01-08T23:02:37.631Z,7.07
2023-01-08T23:05:07.247Z,9.75
2023-01-08T23:07:34.711Z,10.00
2023-01-08T23:10:05.651Z,9.77
2023-01-08T23:12:34.679Z,10.80
2023-01-08T23:15:03.489Z,9.20
2023-01-08T23:17:32.382Z,10.50
2023-01-08T23:20:03.516Z,10.68
2023-01-08T23:22:33.237Z,9.23
2023-01-08T23:25:03.012Z,10.43
2023-01-08T23:27:33.205Z,9.35
2023-01-08T23:30:01.275Z,7.88
2023-01-08T23:32:28.796Z,5.78
2023-01-08T23:34:56.651Z,6.00
2023-01-08T23:37:23.758Z,7.68
2023-01-08T23:39:50.700Z,6.78
2023-01-08T23:42:18.056Z,7.68
2023-01-08T23:44:45.117Z,6.03
2023-01-08T23:47:12.095Z,5.15
2023-01-08T23:49:39.092Z,5.75
2023-01-08T23:52:06.228Z,4.95
2023-01-08T23:54:33.516Z,4.07
2023-01-08T23:57:00.477Z,3.60
2023-01-08T23:59:27.886Z,4.03
